createdAt,value
2023-04-09T00:00:14.545Z,85.17
2023-04-09T00:01:14.491Z,84.87
2023-04-09T00:02:14.442Z,84.77
2023-04-09T00:03:14.397Z,84.87
2023-04-09T00:04:14.275Z,85.28
2023-04-09T00:05:14.229Z,85.28
2023-04-09T00:06:14.175Z,85.28
2023-04-09T00:07:14.057Z,85.49
2023-04-09T00:08:14.014Z,85.49
2023-04-09T00:09:13.963Z,85.49
2023-04-09T00:10:13.900Z,85.49
2023-04-09T00:13:39.201Z,85.49
2023-04-09T00:14:33.220Z,85.38
2023-04-09T00:15:33.183Z,85.38
2023-04-09T00:16:33.106Z,85.28
2023-04-09T00:17:33.054Z,85.17
2023-04-09T00:18:32.980Z,85.28
2023-04-09T00:19:32.910Z,85.69
2023-04-09T00:20:32.870Z,85.79
2023-04-09T00:21:32.801Z,85.89
2023-04-09T00:22:32.735Z,86.00
2023-04-09T00:23:32.696Z,85.89
2023-04-09T00:24:32.604Z,85.79
2023-04-09T00:25:32.515Z,85.69
2023-04-09T00:26:32.457Z,85.69
2023-04-09T00:27:32.365Z,85.59
2023-04-09T00:28:32.325Z,85.38
2023-04-09T00:29:32.252Z,85.38
2023-04-09T00:30:32.218Z,85.49
2023-04-09T00:31:32.221Z,85.59
2023-04-09T00:32:32.137Z,85.79
2023-04-09T00:33:31.986Z,85.79
2023-04-09T00:34:31.953Z,85.73
2023-04-09T00:35:31.929Z,85.83
2023-04-09T00:36:31.884Z,85.83
2023-04-09T00:37:31.763Z,85.94
2023-04-09T00:38:31.742Z,86.24
2023-04-09T00:39:31.659Z,86.24
2023-04-09T00:40:31.570Z,86.24
2023-04-09T00:41:31.507Z,86.24
2023-04-09T00:42:31.504Z,86.35
2023-04-09T00:43:31.361Z,86.45
2023-04-09T00:44:31.381Z,86.55
2023-04-09T00:45:31.303Z,86.76
2023-04-09T00:46:31.221Z,86.55
2023-04-09T00:47:31.157Z,86.35
2023-04-09T00:48:31.086Z,86.35
2023-04-09T00:49:31.006Z,86.55
2023-04-09T00:50:30.910Z,86.55
2023-04-09T00:51:30.876Z,86.80
2023-04-09T00:52:30.810Z,87.21
2023-04-09T00:53:30.790Z,87.42
2023-04-09T00:54:30.719Z,87.32
2023-04-09T00:55:30.594Z,87.01
2023-04-09T00:56:30.528Z,86.80
2023-04-09T00:57:30.500Z,86.55
2023-04-09T00:58:30.462Z,86.55
2023-04-09T00:59:30.402Z,86.66
2023-04-09T01:00:30.318Z,86.55
2023-04-09T01:01:30.457Z,86.60
2023-04-09T01:02:30.225Z,86.80
2023-04-09T01:03:30.182Z,86.90
2023-04-09T01:04:30.023Z,86.80
2023-04-09T01:05:29.956Z,86.70
2023-04-09T01:08:48.358Z,87.01
2023-04-09T01:09:49.301Z,86.80
2023-04-09T01:10:49.271Z,86.90
2023-04-09T01:11:49.170Z,86.90
2023-04-09T01:12:49.130Z,86.80
2023-04-09T01:13:49.118Z,86.49
2023-04-09T01:14:49.002Z,86.70
2023-04-09T01:15:48.974Z,86.90
2023-04-09T01:16:48.996Z,86.80
2023-04-09T01:17:48.850Z,86.90
2023-04-09T01:18:48.723Z,87.01
2023-04-09T01:19:48.706Z,87.11
2023-04-09T01:20:48.627Z,87.26
2023-04-09T01:21:48.588Z,87.56
2023-04-09T01:22:48.482Z,87.77
2023-04-09T01:23:48.421Z,87.98
2023-04-09T01:24:48.373Z,87.98
2023-04-09T01:25:48.359Z,87.98
2023-04-09T01:26:48.271Z,87.66
2023-04-09T01:27:48.188Z,87.56
2023-04-09T01:28:48.122Z,87.77
2023-04-09T01:29:48.043Z,87.87
2023-04-09T01:30:48.031Z,87.98
2023-04-09T01:31:47.953Z,88.22
2023-04-09T01:32:47.919Z,88.43
2023-04-09T01:33:47.782Z,88.64
2023-04-09T01:34:47.729Z,88.64
2023-04-09T01:35:47.686Z,88.84
2023-04-09T01:36:47.642Z,89.05
2023-04-09T01:37:47.596Z,89.15
2023-04-09T01:38:47.494Z,89.15
2023-04-09T01:39:47.473Z,88.95
2023-04-09T01:40:47.857Z,88.95
2023-04-09T01:41:47.345Z,88.74
2023-04-09T01:42:47.239Z,88.74
2023-04-09T01:46:05.631Z,89.05
2023-04-09T01:47:06.560Z,88.95
2023-04-09T01:48:06.473Z,88.95
2023-04-09T01:49:06.450Z,89.05
2023-04-09T01:50:06.374Z,89.15
2023-04-09T01:51:06.338Z,89.25
2023-04-09T01:52:06.219Z,88.95
2023-04-09T01:53:06.192Z,88.95
2023-04-09T01:54:06.148Z,88.95
2023-04-09T01:55:06.056Z,88.84
2023-04-09T01:56:05.994Z,88.95
2023-04-09T01:57:05.916Z,88.84
2023-04-09T01:58:05.869Z,88.95
2023-04-09T01:59:05.827Z,88.95
2023-04-09T02:00:05.742Z,88.84
2023-04-09T02:01:05.698Z,88.74
2023-04-09T02:02:05.651Z,89.05
2023-04-09T02:03:09.671Z,88.84
2023-04-09T02:04:05.537Z,88.95
2023-04-09T02:05:05.437Z,88.95
2023-04-09T02:06:05.365Z,88.84
2023-04-09T02:07:05.283Z,88.84
2023-04-09T02:08:05.260Z,88.74
2023-04-09T02:09:05.232Z,88.95
2023-04-09T02:10:05.130Z,88.84
2023-04-09T02:11:05.081Z,88.74
2023-04-09T02:12:05.028Z,88.84
2023-04-09T02:13:04.923Z,88.95
2023-04-09T02:14:04.861Z,89.05
2023-04-09T02:15:04.847Z,89.05
2023-04-09T02:16:04.796Z,89.05
2023-04-09T02:17:04.666Z,89.05
2023-04-09T02:18:04.606Z,89.05
2023-04-09T02:19:04.585Z,88.74
2023-04-09T02:20:04.495Z,88.64
2023-04-09T02:21:04.428Z,88.74
2023-04-09T02:22:04.361Z,88.84
2023-04-09T02:23:04.299Z,88.84
2023-04-09T02:24:04.228Z,89.05
2023-04-09T02:25:04.165Z,89.05
2023-04-09T02:26:04.107Z,88.84
2023-04-09T02:27:04.064Z,88.84
2023-04-09T02:28:04.006Z,88.74
2023-04-09T02:29:03.912Z,88.74
2023-04-09T02:30:03.852Z,88.74
2023-04-09T02:31:03.822Z,88.84
2023-04-09T02:32:03.741Z,88.84
2023-04-09T02:33:03.697Z,88.95
2023-04-09T02:34:03.626Z,88.84
2023-04-09T02:35:03.565Z,88.74
2023-04-09T02:36:03.524Z,88.53
2023-04-09T02:37:03.419Z,88.32
2023-04-09T02:38:03.328Z,88.08
2023-04-09T02:39:28.310Z,87.87
2023-04-09T02:40:03.246Z,87.77
2023-04-09T02:41:03.237Z,87.98
2023-04-09T02:42:03.100Z,87.98
2023-04-09T02:43:03.036Z,87.77
2023-04-09T02:44:02.994Z,87.87
2023-04-09T02:45:02.961Z,88.43
2023-04-09T02:46:02.855Z,88.43
2023-04-09T02:47:02.763Z,88.43
2023-04-09T02:48:02.698Z,88.32
2023-04-09T02:49:02.684Z,88.22
2023-04-09T02:50:02.560Z,88.22
2023-04-09T02:51:02.550Z,88.22
2023-04-09T02:52:02.495Z,88.12
2023-04-09T02:53:02.443Z,88.02
2023-04-09T02:54:02.366Z,88.02
2023-04-09T02:55:02.284Z,88.12
2023-04-09T02:56:02.214Z,88.22
2023-04-09T02:57:04.819Z,88.12
2023-04-09T02:58:02.061Z,88.12
2023-04-09T02:59:02.097Z,87.92
2023-04-09T03:00:02.083Z,87.92
2023-04-09T03:01:01.881Z,87.92
2023-04-09T03:02:01.858Z,87.92
2023-04-09T03:03:01.964Z,87.92
2023-04-09T03:04:01.938Z,87.81
2023-04-09T03:05:01.653Z,88.02
2023-04-09T03:06:01.608Z,88.22
2023-04-09T03:07:01.497Z,88.32
2023-04-09T03:08:01.488Z,88.53
2023-04-09T03:09:01.398Z,88.74
2023-04-09T03:10:01.316Z,88.74
2023-04-09T03:11:01.268Z,88.89
2023-04-09T03:12:01.175Z,89.09
2023-04-09T03:13:01.127Z,89.09
2023-04-09T03:14:01.095Z,89.09
2023-04-09T03:15:01.012Z,89.09
2023-04-09T03:16:01.001Z,88.98
2023-04-09T03:17:00.917Z,89.29
2023-04-09T03:18:00.860Z,89.40
2023-04-09T03:19:00.762Z,89.40
2023-04-09T03:20:00.683Z,89.61
2023-04-09T03:21:00.656Z,89.50
2023-04-09T03:22:00.583Z,89.29
2023-04-09T03:23:00.551Z,89.50
2023-04-09T03:24:00.427Z,89.40
2023-04-09T03:25:00.389Z,89.61
2023-04-09T03:26:00.330Z,89.92
2023-04-09T03:27:00.290Z,89.92
2023-04-09T03:28:00.172Z,89.81
2023-04-09T03:29:00.145Z,89.71
2023-04-09T03:30:00.138Z,89.71
2023-04-09T03:31:00.058Z,89.71
2023-04-09T03:31:59.919Z,89.71
2023-04-09T03:33:01.214Z,89.50
2023-04-09T03:33:59.857Z,89.29
2023-04-09T03:34:59.758Z,89.19
2023-04-09T03:35:59.720Z,89.29
2023-04-09T03:36:59.624Z,89.50
2023-04-09T03:37:59.569Z,89.40
2023-04-09T03:38:59.511Z,89.44
2023-04-09T03:39:59.474Z,89.54
2023-04-09T03:40:59.382Z,89.65
2023-04-09T03:41:59.287Z,89.65
2023-04-09T03:42:59.254Z,89.54
2023-04-09T03:43:59.213Z,89.75
2023-04-09T03:45:00.610Z,89.86
2023-04-09T03:45:59.046Z,90.06
2023-04-09T03:46:59.069Z,90.16
2023-04-09T03:47:59.004Z,90.16
2023-04-09T03:48:58.884Z,90.16
2023-04-09T03:49:58.785Z,90.06
2023-04-09T03:50:58.760Z,89.95
2023-04-09T03:51:58.717Z,89.86
2023-04-09T03:52:58.609Z,89.86
2023-04-09T03:53:58.566Z,89.86
2023-04-09T03:54:58.542Z,89.75
2023-04-09T03:55:58.455Z,89.75
2023-04-09T03:56:58.369Z,89.86
2023-04-09T03:57:58.304Z,89.75
2023-04-09T03:58:58.250Z,89.75
2023-04-09T03:59:58.152Z,89.65
2023-04-09T04:00:58.085Z,89.65
2023-04-09T04:01:58.074Z,89.65
2023-04-09T04:03:00.588Z,89.54
2023-04-09T04:03:57.968Z,89.65
2023-04-09T04:04:57.895Z,89.44
2023-04-09T04:05:57.777Z,89.34
2023-04-09T04:06:57.716Z,89.34
2023-04-09T04:07:57.683Z,89.44
2023-04-09T04:08:57.630Z,89.44
2023-04-09T04:09:57.592Z,89.44
2023-04-09T04:10:57.485Z,89.54
2023-04-09T04:11:57.395Z,89.65
2023-04-09T04:12:57.406Z,89.54
2023-04-09T04:13:57.293Z,89.44
2023-04-09T04:14:57.241Z,89.23
2023-04-09T04:15:57.162Z,89.23
2023-04-09T04:16:57.073Z,89.34
2023-04-09T04:17:57.004Z,89.34
2023-04-09T04:18:56.950Z,89.65
2023-04-09T04:19:56.878Z,89.86
2023-04-09T04:20:56.824Z,89.54
2023-04-09T04:21:56.761Z,89.65
2023-04-09T04:22:56.689Z,89.75
2023-04-09T04:23:56.578Z,89.95
2023-04-09T04:24:56.571Z,90.16
2023-04-09T04:25:56.481Z,90.16
2023-04-09T04:30:31.219Z,90.16
2023-04-09T04:31:24.938Z,89.95
2023-04-09T04:32:24.916Z,89.86
2023-04-09T04:33:24.774Z,89.54
2023-04-09T04:34:24.699Z,89.23
2023-04-09T04:35:24.782Z,89.34
2023-04-09T04:36:24.633Z,89.44
2023-04-09T04:37:24.500Z,89.44
2023-04-09T04:38:24.461Z,89.65
2023-04-09T04:39:24.401Z,89.65
2023-04-09T04:40:24.341Z,89.86
2023-04-09T04:41:24.273Z,89.95
2023-04-09T04:42:24.270Z,90.16
2023-04-09T04:43:24.154Z,90.31
2023-04-09T04:44:24.111Z,90.37
2023-04-09T04:45:24.020Z,90.20
2023-04-09T04:46:23.958Z,90.31
2023-04-09T04:47:23.963Z,90.52
2023-04-09T04:48:25.296Z,90.62
2023-04-09T04:49:23.773Z,90.41
2023-04-09T04:50:23.714Z,90.37
2023-04-09T04:51:23.646Z,90.52
2023-04-09T04:52:23.555Z,90.62
2023-04-09T04:53:23.543Z,90.62
2023-04-09T04:54:23.500Z,90.72
2023-04-09T04:55:23.381Z,90.72
2023-04-09T04:56:23.300Z,90.68
2023-04-09T04:57:23.349Z,90.72
2023-04-09T04:58:23.202Z,90.68
2023-04-09T04:59:23.114Z,90.89
2023-04-09T05:00:23.093Z,90.58
2023-04-09T05:01:23.038Z,90.26
2023-04-09T05:02:23.113Z,90.06
2023-04-09T05:03:24.076Z,90.26
2023-04-09T05:04:22.854Z,90.37
2023-04-09T05:05:22.768Z,90.47
2023-04-09T05:06:22.743Z,90.47
2023-04-09T05:07:22.690Z,90.37
2023-04-09T05:08:22.617Z,90.26
2023-04-09T05:09:22.579Z,89.95
2023-04-09T05:10:22.448Z,89.86
2023-04-09T05:11:22.440Z,89.54
2023-04-09T05:12:22.334Z,89.29
2023-04-09T05:13:22.274Z,89.09
2023-04-09T05:14:22.187Z,89.09
2023-04-09T05:15:22.102Z,88.98
2023-04-09T05:16:22.105Z,88.98
2023-04-09T05:17:21.995Z,88.98
2023-04-09T05:18:21.979Z,88.89
2023-04-09T05:19:21.871Z,88.98
2023-04-09T05:20:21.851Z,89.09
2023-04-09T05:21:21.722Z,89.09
2023-04-09T05:22:21.684Z,88.78
2023-04-09T05:23:21.640Z,88.78
2023-04-09T05:24:21.572Z,88.89
2023-04-09T05:25:21.498Z,88.98
2023-04-09T05:26:21.433Z,89.09
2023-04-09T05:27:21.392Z,89.09
2023-04-09T05:28:21.287Z,89.19
2023-04-09T05:29:21.223Z,89.40
2023-04-09T05:30:21.161Z,89.40
2023-04-09T05:31:21.118Z,89.40
2023-04-09T05:32:21.079Z,89.71
2023-04-09T05:33:21.012Z,89.81
2023-04-09T05:34:20.930Z,89.81
2023-04-09T05:35:20.862Z,89.81
2023-04-09T05:36:20.819Z,89.71
2023-04-09T05:37:20.757Z,89.61
2023-04-09T05:38:20.681Z,89.71
2023-04-09T05:39:20.622Z,89.92
2023-04-09T05:40:20.555Z,89.81
2023-04-09T05:41:20.558Z,89.61
2023-04-09T05:42:20.470Z,89.40
2023-04-09T05:43:20.360Z,89.19
2023-04-09T05:44:20.324Z,89.09
2023-04-09T05:45:20.238Z,88.74
2023-04-09T05:46:20.183Z,88.53
2023-04-09T05:47:20.265Z,88.64
2023-04-09T05:48:20.059Z,88.95
2023-04-09T05:49:19.989Z,88.84
2023-04-09T05:50:19.946Z,88.74
2023-04-09T05:51:19.877Z,88.64
2023-04-09T05:52:19.826Z,88.22
2023-04-09T05:53:19.730Z,87.92
2023-04-09T05:54:19.956Z,87.56
2023-04-09T05:55:19.592Z,87.77
2023-04-09T05:56:19.556Z,87.77
2023-04-09T05:57:19.459Z,87.87
2023-04-09T05:58:19.418Z,87.56
2023-04-09T05:59:19.329Z,87.66
2023-04-09T06:02:37.853Z,86.90
2023-04-09T06:03:38.692Z,86.60
2023-04-09T06:04:38.571Z,86.60
2023-04-09T06:05:38.465Z,86.39
2023-04-09T06:06:38.415Z,86.08
2023-04-09T06:07:38.399Z,86.49
2023-04-09T06:08:38.248Z,86.70
2023-04-09T06:09:38.224Z,86.15
2023-04-09T06:10:38.807Z,86.35
2023-04-09T06:11:38.085Z,85.94
2023-04-09T06:12:37.994Z,86.24
2023-04-09T06:13:37.966Z,86.45
2023-04-09T06:14:37.902Z,86.49
2023-04-09T06:15:37.841Z,86.80
2023-04-09T06:16:37.792Z,87.11
2023-04-09T06:17:37.740Z,86.60
2023-04-09T06:18:37.632Z,86.49
2023-04-09T06:19:37.864Z,86.76
2023-04-09T06:20:37.511Z,86.18
2023-04-09T06:21:37.454Z,86.49
2023-04-09T06:22:37.409Z,86.70
2023-04-09T06:23:37.384Z,86.29
2023-04-09T06:24:37.272Z,86.39
2023-04-09T06:25:37.217Z,86.39
2023-04-09T06:26:37.135Z,86.49
2023-04-09T06:27:37.078Z,86.18
2023-04-09T06:28:37.036Z,86.70
2023-04-09T06:29:36.948Z,87.21
2023-04-09T06:30:36.959Z,87.11
2023-04-09T06:31:36.873Z,86.90
2023-04-09T06:32:46.846Z,86.49
2023-04-09T06:33:36.719Z,86.45
2023-04-09T06:34:36.675Z,86.45
2023-04-09T06:35:36.617Z,86.66
2023-04-09T06:36:36.537Z,86.66
2023-04-09T06:42:13.135Z,85.94
2023-04-09T06:43:14.055Z,85.94
2023-04-09T06:44:13.991Z,86.04
2023-04-09T06:45:13.927Z,85.83
2023-04-09T06:46:13.886Z,85.94
2023-04-09T06:47:13.840Z,86.00
2023-04-09T06:48:13.795Z,85.38
2023-04-09T06:49:13.673Z,85.38
2023-04-09T06:50:13.655Z,85.38
2023-04-09T06:51:13.576Z,84.97
2023-04-09T06:52:13.509Z,84.87
2023-04-09T06:53:13.472Z,84.62
2023-04-09T06:54:13.397Z,84.11
2023-04-09T06:55:13.327Z,83.59
2023-04-09T06:56:14.189Z,83.80
2023-04-09T06:57:13.178Z,83.76
2023-04-09T06:58:13.119Z,83.65
2023-04-09T07:01:32.487Z,83.14
2023-04-09T07:02:33.478Z,83.45
2023-04-09T07:03:33.486Z,83.76
2023-04-09T07:04:33.337Z,84.07
2023-04-09T07:05:33.185Z,82.83
2023-04-09T07:06:33.149Z,83.62
2023-04-09T07:07:33.035Z,83.92
2023-04-09T07:08:32.977Z,82.90
2023-04-09T07:09:32.921Z,83.48
2023-04-09T07:10:32.830Z,82.65
2023-04-09T07:11:32.787Z,82.14
2023-04-09T07:12:32.807Z,81.07
2023-04-09T07:13:32.665Z,80.42
2023-04-09T07:14:32.624Z,80.28
2023-04-09T07:15:32.568Z,79.77
2023-04-09T07:16:32.599Z,79.01
2023-04-09T07:17:32.482Z,77.54
2023-04-09T07:18:32.324Z,76.72
2023-04-09T07:19:32.357Z,76.72
2023-04-09T07:20:32.198Z,76.20
2023-04-09T07:21:32.132Z,76.78
2023-04-09T07:22:32.344Z,76.65
2023-04-09T07:23:32.025Z,76.03
2023-04-09T07:24:32.008Z,74.87
2023-04-09T07:25:31.944Z,74.87
2023-04-09T07:26:31.844Z,74.66
2023-04-09T07:27:31.751Z,74.02
2023-04-09T07:28:31.714Z,72.62
2023-04-09T07:29:31.677Z,70.30
2023-04-09T07:30:31.603Z,68.67
2023-04-09T07:31:32.384Z,66.13
2023-04-09T07:32:31.497Z,64.47
2023-04-09T07:33:31.400Z,64.26
2023-04-09T07:34:31.357Z,63.93
2023-04-09T07:35:31.333Z,63.19
2023-04-09T07:39:58.779Z,63.01
2023-04-09T07:40:59.696Z,64.03
2023-04-09T07:41:59.599Z,62.48
2023-04-09T07:42:59.592Z,61.76
2023-04-09T07:43:59.506Z,61.53
2023-04-09T07:44:59.459Z,61.60
2023-04-09T07:45:59.406Z,60.83
2023-04-09T07:46:59.363Z,59.39
2023-04-09T07:47:59.290Z,59.66
2023-04-09T07:48:59.185Z,59.59
2023-04-09T07:49:59.157Z,58.67
2023-04-09T07:50:59.069Z,59.08
2023-04-09T07:51:59.008Z,59.77
2023-04-09T07:52:58.946Z,59.46
2023-04-09T07:53:58.870Z,58.09
2023-04-09T07:54:58.857Z,56.36
2023-04-09T07:55:58.788Z,56.41
2023-04-09T07:56:59.909Z,57.28
2023-04-09T07:57:58.657Z,58.29
2023-04-09T07:58:58.568Z,58.42
2023-04-09T07:59:58.529Z,58.73
2023-04-09T08:00:58.476Z,58.83
2023-04-09T08:01:58.448Z,58.69
2023-04-09T08:02:58.596Z,59.83
2023-04-09T08:03:58.372Z,60.24
2023-04-09T08:04:58.330Z,59.80
2023-04-09T08:05:58.100Z,59.98
2023-04-09T08:06:58.076Z,59.16
2023-04-09T08:07:58.005Z,59.03
2023-04-09T08:08:57.986Z,58.33
2023-04-09T08:09:57.870Z,57.71
2023-04-09T08:10:57.849Z,57.84
2023-04-09T08:11:57.742Z,60.27
2023-04-09T08:12:57.713Z,61.24
2023-04-09T08:13:57.609Z,62.18
2023-04-09T08:14:57.633Z,62.97
2023-04-09T08:15:57.531Z,62.62
2023-04-09T08:16:57.448Z,63.78
2023-04-09T08:17:57.378Z,65.13
2023-04-09T08:18:57.322Z,64.83
2023-04-09T08:19:57.237Z,65.77
2023-04-09T08:20:57.248Z,65.98
2023-04-09T08:21:57.139Z,66.21
2023-04-09T08:22:57.070Z,66.52
2023-04-09T08:23:56.979Z,66.52
2023-04-09T08:24:56.925Z,66.72
2023-04-09T08:25:56.908Z,66.52
2023-04-09T08:26:58.102Z,66.31
2023-04-09T08:27:56.734Z,66.49
2023-04-09T08:28:56.703Z,65.31
2023-04-09T08:29:56.632Z,63.31
2023-04-09T08:30:56.547Z,61.82
2023-04-09T08:31:56.669Z,60.44
2023-04-09T08:32:56.538Z,61.18
2023-04-09T08:33:56.369Z,61.93
2023-04-09T08:34:56.315Z,61.36
2023-04-09T08:35:56.239Z,60.08
2023-04-09T08:36:56.191Z,59.34
2023-04-09T08:37:56.133Z,58.70
2023-04-09T08:38:56.410Z,57.28
2023-04-09T08:39:56.007Z,58.17
2023-04-09T08:40:55.953Z,57.66
2023-04-09T08:41:55.895Z,57.23
2023-04-09T08:42:55.900Z,56.72
2023-04-09T08:43:58.763Z,56.82
2023-04-09T08:44:55.725Z,56.52
2023-04-09T08:45:55.654Z,56.54
2023-04-09T08:46:56.565Z,57.08
2023-04-09T08:47:55.571Z,57.48
2023-04-09T08:48:55.842Z,57.99
2023-04-09T08:49:55.421Z,58.83
2023-04-09T08:50:55.347Z,58.09
2023-04-09T08:51:55.266Z,56.80
2023-04-09T08:52:55.225Z,56.70
2023-04-09T08:53:55.170Z,57.00
2023-04-09T08:54:55.155Z,56.80
2023-04-09T08:55:55.013Z,56.37
2023-04-09T08:56:54.975Z,56.16
2023-04-09T08:57:54.890Z,55.66
2023-04-09T08:58:55.302Z,56.04
2023-04-09T08:59:54.770Z,57.05
2023-04-09T09:00:54.738Z,55.86
2023-04-09T09:01:54.880Z,57.43
2023-04-09T09:02:54.769Z,59.50
2023-04-09T09:03:54.712Z,58.78
2023-04-09T09:04:54.487Z,58.94
2023-04-09T09:05:54.378Z,60.12
2023-04-09T09:06:56.589Z,60.76
2023-04-09T09:07:54.283Z,62.01
2023-04-09T09:08:55.403Z,62.55
2023-04-09T09:09:54.173Z,62.68
2023-04-09T09:10:54.085Z,62.68
2023-04-09T09:11:54.020Z,62.48
2023-04-09T09:12:53.959Z,63.02
2023-04-09T09:13:53.912Z,63.12
2023-04-09T09:14:53.879Z,62.20
2023-04-09T09:15:53.755Z,62.10
2023-04-09T09:16:53.800Z,62.43
2023-04-09T09:17:53.687Z,62.23
2023-04-09T09:18:54.690Z,62.77
2023-04-09T09:19:53.526Z,63.31
2023-04-09T09:20:53.508Z,63.82
2023-04-09T09:21:53.438Z,64.43
2023-04-09T09:22:54.573Z,65.15
2023-04-09T09:23:53.318Z,65.18
2023-04-09T09:24:53.209Z,65.15
2023-04-09T09:25:53.186Z,65.77
2023-04-09T09:26:53.142Z,65.77
2023-04-09T09:27:53.051Z,65.05
2023-04-09T09:28:53.139Z,64.54
2023-04-09T09:29:52.935Z,64.95
2023-04-09T09:30:52.865Z,66.28
2023-04-09T09:31:52.805Z,66.58
2023-04-09T09:32:52.733Z,65.36
2023-04-09T09:33:52.675Z,64.95
2023-04-09T09:34:52.573Z,65.25
2023-04-09T09:35:52.636Z,63.62
2023-04-09T09:36:52.462Z,63.92
2023-04-09T09:37:52.448Z,63.41
2023-04-09T09:38:52.457Z,63.92
2023-04-09T09:39:52.283Z,64.03
2023-04-09T09:40:52.255Z,63.31
2023-04-09T09:41:52.136Z,64.03
2023-04-09T09:42:52.101Z,63.54
2023-04-09T09:43:52.066Z,63.85
2023-04-09T09:47:10.345Z,65.52
2023-04-09T09:48:11.327Z,65.31
2023-04-09T09:49:11.217Z,65.31
2023-04-09T09:50:11.123Z,65.52
2023-04-09T09:51:11.089Z,64.60
2023-04-09T09:52:11.083Z,64.18
2023-04-09T09:53:10.940Z,63.98
2023-04-09T09:54:10.931Z,64.18
2023-04-09T09:55:10.868Z,64.50
2023-04-09T09:56:10.805Z,63.78
2023-04-09T09:57:10.714Z,64.39
2023-04-09T09:58:10.663Z,65.01
2023-04-09T09:59:10.594Z,65.31
2023-04-09T10:00:10.498Z,64.50
2023-04-09T10:01:10.479Z,64.50
2023-04-09T10:02:10.446Z,63.85
2023-04-09T10:03:10.346Z,63.95
2023-04-09T10:04:10.372Z,64.06
2023-04-09T10:05:10.200Z,64.47
2023-04-09T10:06:10.153Z,64.47
2023-04-09T10:07:10.092Z,65.28
2023-04-09T10:08:10.043Z,65.77
2023-04-09T10:09:09.955Z,65.36
2023-04-09T10:10:09.963Z,66.00
2023-04-09T10:11:09.827Z,65.90
2023-04-09T10:12:09.768Z,66.00
2023-04-09T10:13:09.703Z,66.00
2023-04-09T10:14:09.651Z,65.80
2023-04-09T10:15:09.592Z,65.18
2023-04-09T10:16:09.576Z,65.69
2023-04-09T10:17:09.492Z,66.10
2023-04-09T10:18:09.392Z,65.69
2023-04-09T10:19:09.339Z,66.10
2023-04-09T10:20:09.240Z,65.49
2023-04-09T10:21:09.230Z,65.69
2023-04-09T10:22:09.206Z,65.80
2023-04-09T10:23:09.089Z,65.90
2023-04-09T10:24:09.012Z,65.28
2023-04-09T10:25:08.948Z,65.08
2023-04-09T10:26:08.870Z,64.47
2023-04-09T10:27:08.829Z,64.36
2023-04-09T10:28:08.813Z,65.18
2023-04-09T10:29:08.667Z,65.39
2023-04-09T10:30:08.642Z,65.36
2023-04-09T10:31:08.674Z,65.15
2023-04-09T10:32:08.481Z,64.74
2023-04-09T10:33:08.674Z,64.84
2023-04-09T10:34:10.812Z,64.03
2023-04-09T10:35:08.355Z,63.51
2023-04-09T10:36:08.304Z,63.10
2023-04-09T10:37:08.201Z,63.00
2023-04-09T10:38:08.172Z,62.80
2023-04-09T10:39:08.052Z,62.39
2023-04-09T10:40:10.258Z,62.59
2023-04-09T10:41:07.943Z,63.10
2023-04-09T10:42:07.888Z,63.41
2023-04-09T10:43:07.821Z,64.33
2023-04-09T10:44:07.794Z,64.43
2023-04-09T10:45:07.714Z,63.62
2023-04-09T10:46:07.709Z,64.43
2023-04-09T10:47:07.574Z,63.59
2023-04-09T10:48:07.639Z,64.20
2023-04-09T10:49:07.446Z,64.00
2023-04-09T10:50:07.384Z,62.98
2023-04-09T10:51:07.318Z,64.00
2023-04-09T10:52:08.872Z,62.98
2023-04-09T10:53:07.190Z,61.95
2023-04-09T10:54:07.146Z,61.24
2023-04-09T10:55:07.069Z,61.44
2023-04-09T10:56:07.008Z,62.05
2023-04-09T10:57:06.932Z,61.92
2023-04-09T11:02:43.808Z,60.26
2023-04-09T11:03:44.521Z,59.95
2023-04-09T11:04:44.435Z,60.36
2023-04-09T11:05:44.406Z,60.36
2023-04-09T11:06:44.395Z,60.57
2023-04-09T11:07:44.267Z,60.87
2023-04-09T11:08:44.193Z,61.00
2023-04-09T11:09:44.127Z,61.41
2023-04-09T11:10:44.156Z,61.85
2023-04-09T11:11:43.975Z,62.36
2023-04-09T11:12:43.961Z,62.57
2023-04-09T11:13:43.901Z,61.65
2023-04-09T11:14:43.838Z,61.24
2023-04-09T11:15:43.806Z,60.11
2023-04-09T11:16:43.733Z,60.83
2023-04-09T11:17:43.620Z,60.31
2023-04-09T11:18:43.554Z,60.83
2023-04-09T11:19:43.520Z,60.72
2023-04-09T11:20:43.406Z,60.69
2023-04-09T11:21:43.566Z,60.80
2023-04-09T11:22:43.278Z,61.00
2023-04-09T11:23:43.286Z,61.21
2023-04-09T11:24:43.217Z,61.21
2023-04-09T11:25:43.382Z,61.61
2023-04-09T11:26:43.120Z,61.21
2023-04-09T11:27:43.933Z,61.51
2023-04-09T11:28:42.928Z,62.74
2023-04-09T11:29:42.875Z,62.54
2023-04-09T11:30:42.834Z,63.25
2023-04-09T11:31:42.779Z,63.56
2023-04-09T11:32:42.771Z,62.02
2023-04-09T11:33:42.588Z,62.20
2023-04-09T11:34:42.551Z,61.69
2023-04-09T11:35:42.508Z,63.19
2023-04-09T11:36:42.448Z,62.85
2023-04-09T11:38:03.421Z,63.03
2023-04-09T11:38:42.371Z,61.47
2023-04-09T11:39:42.235Z,60.45
2023-04-09T11:40:42.148Z,60.22
2023-04-09T11:41:42.141Z,59.68
2023-04-09T11:42:42.046Z,59.07
2023-04-09T11:43:42.030Z,56.81
2023-04-09T11:44:41.925Z,56.29
2023-04-09T11:45:41.861Z,56.47
2023-04-09T11:46:41.838Z,55.05
2023-04-09T11:47:41.728Z,56.16
2023-04-09T11:48:41.675Z,55.55
2023-04-09T11:49:41.601Z,54.94
2023-04-09T11:50:41.583Z,53.42
2023-04-09T11:51:41.486Z,54.54
2023-04-09T11:52:41.438Z,54.66
2023-04-09T11:53:41.382Z,54.08
2023-04-09T11:54:41.303Z,55.51
2023-04-09T11:55:41.283Z,56.35
2023-04-09T11:56:41.198Z,56.42
2023-04-09T11:57:41.109Z,55.00
2023-04-09T11:58:41.049Z,56.52
2023-04-09T11:59:41.009Z,55.81
2023-04-09T12:00:40.921Z,56.12
2023-04-09T12:01:40.951Z,54.87
2023-04-09T12:02:40.974Z,55.28
2023-04-09T12:03:40.851Z,54.57
2023-04-09T12:04:40.706Z,54.77
2023-04-09T12:05:42.564Z,54.57
2023-04-09T12:06:40.584Z,54.77
2023-04-09T12:07:42.356Z,54.69
2023-04-09T12:08:40.451Z,55.41
2023-04-09T12:09:40.363Z,55.20
2023-04-09T12:10:40.323Z,54.51
2023-04-09T12:11:40.263Z,55.20
2023-04-09T12:12:40.167Z,54.49
2023-04-09T12:15:59.181Z,54.87
2023-04-09T12:16:59.466Z,54.77
2023-04-09T12:17:59.392Z,53.52
2023-04-09T12:18:59.259Z,53.32
2023-04-09T12:19:59.201Z,53.63
2023-04-09T12:20:59.189Z,53.42
2023-04-09T12:21:59.072Z,53.11
2023-04-09T12:22:59.007Z,53.75
2023-04-09T12:23:58.943Z,53.75
2023-04-09T12:24:58.929Z,53.42
2023-04-09T12:25:58.854Z,53.29
2023-04-09T12:26:58.808Z,52.56
2023-04-09T12:27:58.749Z,53.47
2023-04-09T12:28:58.663Z,52.03
2023-04-09T12:29:58.571Z,51.72
2023-04-09T12:30:58.516Z,52.91
2023-04-09T12:31:58.519Z,49.95
2023-04-09T12:32:58.451Z,49.74
2023-04-09T12:33:58.298Z,49.84
2023-04-09T12:34:58.231Z,49.95
2023-04-09T12:35:58.376Z,50.25
2023-04-09T12:36:58.149Z,49.84
2023-04-09T12:37:58.132Z,49.95
2023-04-09T12:38:58.003Z,50.04
2023-04-09T12:39:58.760Z,50.35
2023-04-09T12:40:57.882Z,49.31
2023-04-09T12:41:57.819Z,49.13
2023-04-09T12:42:57.738Z,49.74
2023-04-09T12:43:57.703Z,49.87
2023-04-09T12:44:57.623Z,50.50
2023-04-09T12:45:57.593Z,50.60
2023-04-09T12:46:57.540Z,49.81
2023-04-09T12:47:57.545Z,50.32
2023-04-09T12:48:57.413Z,51.03
2023-04-09T12:49:57.327Z,50.85
2023-04-09T12:50:57.270Z,51.26
2023-04-09T12:51:57.195Z,51.03
2023-04-09T12:52:57.112Z,51.34
2023-04-09T12:53:57.104Z,51.23
2023-04-09T12:54:57.043Z,51.26
2023-04-09T12:55:56.929Z,51.06
2023-04-09T12:56:56.898Z,51.16
2023-04-09T12:57:56.859Z,50.75
2023-04-09T12:58:56.765Z,50.45
2023-04-09T12:59:56.715Z,51.28
2023-04-09T13:00:56.662Z,52.20
2023-04-09T13:01:56.651Z,51.36
2023-04-09T13:02:56.625Z,50.78
2023-04-09T13:03:56.877Z,51.59
2023-04-09T13:04:56.377Z,52.20
2023-04-09T13:05:56.322Z,50.98
2023-04-09T13:06:56.292Z,50.87
2023-04-09T13:07:56.232Z,51.16
2023-04-09T13:08:56.189Z,52.28
2023-04-09T13:09:56.092Z,51.46
2023-04-09T13:10:56.026Z,50.55
2023-04-09T13:11:55.968Z,50.95
2023-04-09T13:12:55.926Z,49.63
2023-04-09T13:13:55.838Z,49.91
2023-04-09T13:14:55.779Z,50.62
2023-04-09T13:15:55.722Z,50.73
2023-04-09T13:16:55.698Z,49.81
2023-04-09T13:17:55.605Z,49.53
2023-04-09T13:18:55.518Z,50.32
2023-04-09T13:19:55.438Z,50.73
2023-04-09T13:20:55.380Z,50.22
2023-04-09T13:21:55.337Z,50.90
2023-04-09T13:22:55.312Z,49.48
2023-04-09T13:23:55.206Z,49.76